WMKJWMKM

Guest
Details From WMKJ - Senai Intl - Sultan Ismail
To WMKM - Malacca
Flight Number -
Tags generated
Created
Modified
Stats Distance 93 nm / 172 km
Max Altitude 2,600 ft / 792 m
Waypoints 3
Social Downloads 1
Likes 0
Share

Download

Looking for another format? Having issues loading an existing format? Contact us
Advertisement - Login to hide

Notes

Basic altitude profile: - Ascent Rate: 250ft/min - Ascent Speed: 150kts - Cruise Altitude: 5000ft - Cruise Speed: 150kts - Descent Rate: 1000ft/min - Descent Speed: 120kts Options: - Use NATs: yes - Use PACOTS: yes - Use low airways: yes - Use high airways: yes

Route

WMKJ SABKA WMKM

ID Type Via Altitude (ft/m) Position (lat/lon) Dist (leg/tot) Name
O WMKJ APT - 0 / 0 1.64056 / 103.67000 - / 0 nm Senai Intl - Sultan Ismail
SABKA FIX - 2,600 / 792 1.84753 / 103.28700 26 / 26 nm
O WMKM APT - 0 / 0 2.26336 / 102.25200 66 / 93 nm Malacca

Altitude Profile

Advertisement - Login to hide

WMKJ

Details ICAO WMKJ (JHB)
Name Senai Intl - Sultan Ismail
Region Malaysia (Peninsular Malaysia)
Timezone Asia/Kuala_Lumpur (UTC+8.0)
Stats Elevation 133 ft / 41 m (AMSL)
Location 1.640560° 103.670000°
Runways 1
Magnetic Variation 0.181° E

METAR

WMKJ 281500Z VRB02KT 5000 BR FEW006 25/24 Q1008

Decode

TAF

TAF WMKJ 281100Z 2812/2912 VRB02KT 9999 FEW018 TEMPO 2812/2816 4000 TSRA FEW017CB PROB30 TEMPO 2906/2909 4000 TSRA FEW017CB

Decode

Departure Runways

ID Width Length Bearing (true/mag) Surface Threshold Overrun Markings Lighting
16 150 ft / 46 m 12,602 ft / 3,841 m 160.01° / 159.83° ASPHALT 0 ft / 0 m 0 ft / 0 m PREC-APP CENTERLINE EDGE THRESHOLD
34 150 ft / 46 m 12,602 ft / 3,841 m 340.01° / 339.83° ASPHALT 0 ft / 0 m 0 ft / 0 m PREC-APP CENTERLINE EDGE THRESHOLD

WMKM

Details ICAO WMKM (MKZ)
Name Malacca
Region Malaysia (Peninsular Malaysia)
Timezone Asia/Kuala_Lumpur (UTC+8.0)
Stats Elevation 35 ft / 11 m (AMSL)
Location 2.265540° 102.253000°
Runways 1
Magnetic Variation 0.090° E

METAR

WMKM 281600Z 00000KT 9999 FEW029 27/25 Q1009

Decode

TAF

TAF WMKM 281100Z 2812/2912 VRB02KT 9999 FEW020 PROB30 TEMPO 2814/2818 4000 TSRA FEW017CB

Decode

Destination Runways

ID Width Length Bearing (true/mag) Surface Threshold Overrun Markings Lighting
03 150 ft / 46 m 7,037 ft / 2,145 m 29.94° / 29.86° ASPHALT 0 ft / 0 m 0 ft / 0 m PREC-APP CENTERLINE EDGE THRESHOLD
21 150 ft / 46 m 7,037 ft / 2,145 m 209.94° / 209.86° ASPHALT 0 ft / 0 m 0 ft / 0 m PREC-APP CENTERLINE EDGE THRESHOLD

Approach Navaids

Runway Type Ident Frequency Range Bearing (true/mag) Slope Elevation
03 GS IKKM 111.70 MHz 10 nm / 19 km 29.95° / 29.86 ° 3.00° 35 ft / 11 m (AMSL)
03 LOC-ILS IKKM 111.70 MHz 18 nm / 33 km 29.95° / 29.86 ° - 35 ft / 11 m (AMSL)

Popular Alternatives